createdAt,value
2022-11-26T00:01:19.542Z,101044.81
2022-11-26T00:03:47.299Z,101056.72
2022-11-26T00:06:34.064Z,101053.53
2022-11-26T00:09:01.998Z,101060.47
2022-11-26T00:11:29.390Z,101048.69
2022-11-26T00:13:56.413Z,101051.22
2022-11-26T00:16:23.811Z,101059.84
2022-11-26T00:18:50.907Z,101052.00
2022-11-26T00:21:22.489Z,101062.47
2022-11-26T00:23:50.249Z,101059.13
2022-11-26T00:26:23.007Z,101048.06
2022-11-26T00:28:56.209Z,101054.03
2022-11-26T00:31:24.431Z,101060.88
2022-11-26T00:33:51.648Z,101061.00
2022-11-26T00:36:26.007Z,101055.91
2022-11-26T00:39:15.726Z,101052.53
2022-11-26T00:41:47.283Z,101060.19
2022-11-26T00:44:23.183Z,101071.31
2022-11-26T00:46:51.199Z,101057.75
2022-11-26T00:49:19.017Z,101070.56
2022-11-26T00:51:46.924Z,101069.84
2022-11-26T00:54:17.309Z,101069.97
2022-11-26T00:56:44.748Z,101061.38
2022-11-26T00:59:14.919Z,101064.84
2022-11-26T01:01:42.169Z,101073.28
2022-11-26T01:04:09.538Z,101068.34
2022-11-26T01:06:41.982Z,101071.44
2022-11-26T01:09:17.554Z,101085.25
2022-11-26T01:11:46.437Z,101075.72
2022-11-26T01:14:18.798Z,101090.34
2022-11-26T01:16:47.697Z,101083.47
2022-11-26T01:19:16.621Z,101080.78
2022-11-26T01:21:43.797Z,101084.84
2022-11-26T01:24:11.080Z,101085.78
2022-11-26T01:26:43.087Z,101092.50
2022-11-26T01:29:18.008Z,101087.47
2022-11-26T01:31:45.313Z,101060.72
2022-11-26T01:34:12.803Z,101091.81
2022-11-26T01:36:41.196Z,101088.34
2022-11-26T01:39:22.790Z,101094.16
2022-11-26T01:42:06.370Z,101103.63
2022-11-26T01:44:36.988Z,101095.19
2022-11-26T01:47:22.153Z,101101.78
2022-11-26T01:50:26.880Z,101102.84
2022-11-26T01:52:58.859Z,101106.88
2022-11-26T01:55:40.196Z,101100.00
2022-11-26T01:58:10.681Z,101098.53
2022-11-26T02:00:37.760Z,101107.00
2022-11-26T02:03:05.926Z,101097.53
2022-11-26T02:05:42.821Z,101104.97
2022-11-26T02:08:12.041Z,101106.56
2022-11-26T02:10:39.210Z,101096.38
2022-11-26T02:13:06.545Z,101091.16
2022-11-26T02:15:46.682Z,101115.03
2022-11-26T02:18:13.868Z,101113.31
2022-11-26T02:20:47.009Z,101102.38
2022-11-26T02:23:29.070Z,101104.84
2022-11-26T02:26:19.232Z,101121.00
2022-11-26T02:28:46.202Z,101122.59
2022-11-26T02:31:20.824Z,101114.19
2022-11-26T02:34:10.622Z,101118.25
2022-11-26T02:36:47.262Z,101121.75
2022-11-26T02:39:19.684Z,101113.03
2022-11-26T02:41:49.727Z,101125.09
2022-11-26T02:44:20.514Z,101130.19
2022-11-26T02:46:51.982Z,101121.75
2022-11-26T02:49:22.561Z,101128.59
2022-11-26T02:51:54.394Z,101132.75
2022-11-26T02:54:24.281Z,101123.63
2022-11-26T02:56:52.877Z,101144.75
2022-11-26T02:59:20.430Z,101130.31
2022-11-26T03:01:57.954Z,101116.50
2022-11-26T03:04:30.934Z,101142.25
2022-11-26T03:07:02.441Z,101134.56
2022-11-26T03:09:42.355Z,101155.81
2022-11-26T03:12:09.632Z,101150.72
2022-11-26T03:14:37.038Z,101147.09
2022-11-26T03:17:04.351Z,101145.34
2022-11-26T03:19:31.473Z,101143.72
2022-11-26T03:21:58.598Z,101122.75
2022-11-26T03:24:25.719Z,101158.00
2022-11-26T03:26:52.981Z,101145.06
2022-11-26T03:29:20.151Z,101165.72
2022-11-26T03:31:47.355Z,101162.50
2022-11-26T03:34:14.551Z,101176.06
2022-11-26T03:36:41.709Z,101163.44
2022-11-26T03:39:08.983Z,101174.44
2022-11-26T03:41:36.103Z,101164.25
2022-11-26T03:44:03.256Z,101161.63
2022-11-26T03:46:30.472Z,101170.22
2022-11-26T03:48:57.531Z,101174.44
2022-11-26T03:51:24.711Z,101179.53
2022-11-26T03:53:51.815Z,101179.53
2022-11-26T03:56:19.023Z,101165.53
2022-11-26T03:58:46.147Z,101172.56
2022-11-26T04:01:13.868Z,101176.06
2022-11-26T04:03:41.379Z,101182.00
2022-11-26T04:06:08.862Z,101169.19
2022-11-26T04:08:36.072Z,101169.06
2022-11-26T04:11:03.227Z,101185.97
2022-11-26T04:13:30.516Z,101176.56
2022-11-26T04:15:57.592Z,101183.22
2022-11-26T04:18:24.637Z,101190.91
2022-11-26T04:20:53.466Z,101188.53
2022-11-26T04:23:20.994Z,101195.28
2022-11-26T04:25:48.157Z,101192.53
2022-11-26T04:28:15.465Z,101206.34
2022-11-26T04:30:43.832Z,101203.00
2022-11-26T04:33:11.303Z,101213.19
2022-11-26T04:35:38.885Z,101208.81
2022-11-26T04:38:06.223Z,101207.69
2022-11-26T04:40:33.477Z,101219.59
2022-11-26T04:43:00.632Z,101214.38
2022-11-26T04:45:27.853Z,101215.72
2022-11-26T04:47:54.984Z,101208.84
2022-11-26T04:50:22.120Z,101219.03
2022-11-26T04:52:49.622Z,101217.31
2022-11-26T04:55:18.032Z,101217.19
2022-11-26T04:57:48.865Z,101229.09
2022-11-26T05:00:18.047Z,101223.88
2022-11-26T05:02:45.818Z,101224.00
2022-11-26T05:05:13.639Z,101225.75
2022-11-26T05:07:41.037Z,101226.41
2022-11-26T05:10:09.043Z,101225.63
2022-11-26T05:12:36.992Z,101238.19
2022-11-26T05:15:05.592Z,101233.78
2022-11-26T05:17:33.395Z,101241.41
2022-11-26T05:20:00.463Z,101248.91
2022-11-26T05:22:27.836Z,101251.59
2022-11-26T05:24:54.952Z,101252.25
2022-11-26T05:27:22.144Z,101262.59
2022-11-26T05:29:49.340Z,101263.38
2022-11-26T05:32:16.547Z,101250.94
2022-11-26T05:34:43.666Z,101272.78
2022-11-26T05:37:10.955Z,101272.78
2022-11-26T05:39:38.267Z,101277.69
2022-11-26T05:42:09.349Z,101281.06
2022-11-26T05:44:37.814Z,101289.19
2022-11-26T05:47:05.227Z,101256.75
2022-11-26T05:49:32.916Z,101296.03
2022-11-26T05:52:00.385Z,101303.53
2022-11-26T05:54:27.493Z,101287.81
2022-11-26T05:56:59.875Z,101300.84
2022-11-26T05:59:28.352Z,101297.22
2022-11-26T06:01:55.560Z,101299.66
2022-11-26T06:04:23.345Z,101296.75
2022-11-26T06:06:50.512Z,101299.44
2022-11-26T06:09:17.663Z,101301.97
2022-11-26T06:11:44.871Z,101311.88
2022-11-26T06:14:11.983Z,101315.22
2022-11-26T06:16:39.120Z,101313.97
2022-11-26T06:19:06.221Z,101319.84
2022-11-26T06:21:33.514Z,101324.78
2022-11-26T06:24:00.672Z,101328.13
2022-11-26T06:26:27.863Z,101336.53
2022-11-26T06:28:55.005Z,101334.81
2022-11-26T06:31:22.417Z,101334.09
2022-11-26T06:33:54.511Z,101340.03
2022-11-26T06:36:22.475Z,101340.03
2022-11-26T06:38:49.908Z,101338.47
2022-11-26T06:41:17.102Z,101337.34
2022-11-26T06:43:44.385Z,101316.72
2022-11-26T06:46:12.173Z,101356.75
2022-11-26T06:48:40.422Z,101357.69
2022-11-26T06:51:13.274Z,101365.19
2022-11-26T06:53:41.087Z,101367.63
2022-11-26T06:56:17.807Z,101376.94
2022-11-26T06:58:46.918Z,101378.53
2022-11-26T07:01:20.096Z,101376.16
2022-11-26T07:03:47.983Z,101378.38
2022-11-26T07:06:27.583Z,101379.28
2022-11-26T07:08:57.166Z,101378.38
2022-11-26T07:11:25.672Z,101386.97
2022-11-26T07:13:53.105Z,101388.06
2022-11-26T07:16:21.024Z,101393.41
2022-11-26T07:18:50.593Z,101394.13
2022-11-26T07:21:18.911Z,101397.59
2022-11-26T07:23:46.465Z,101396.66
2022-11-26T07:26:15.585Z,101406.03
2022-11-26T07:28:43.304Z,101403.34
2022-11-26T07:31:16.409Z,101399.22
2022-11-26T07:33:45.872Z,101399.22
2022-11-26T07:36:17.685Z,101406.19
2022-11-26T07:38:45.544Z,101406.19
2022-11-26T07:41:16.350Z,101403.03
2022-11-26T07:43:44.592Z,101414.94
2022-11-26T07:46:15.103Z,101416.59
2022-11-26T07:48:43.710Z,101422.66
2022-11-26T07:51:29.905Z,101425.25
2022-11-26T07:53:59.004Z,101436.16
2022-11-26T07:56:26.631Z,101433.41
2022-11-26T07:58:53.741Z,101438.63
2022-11-26T08:01:23.296Z,101441.97
2022-11-26T08:03:51.432Z,101444.50
2022-11-26T08:06:22.035Z,101443.56
2022-11-26T08:08:49.687Z,101445.16
2022-11-26T08:11:22.795Z,101452.78
2022-11-26T08:13:53.947Z,101453.75
2022-11-26T08:16:21.320Z,101448.47
2022-11-26T08:18:49.051Z,101459.47
2022-11-26T08:21:16.237Z,101455.19
2022-11-26T08:23:43.420Z,101422.72
2022-11-26T08:26:23.877Z,101462.41
2022-11-26T08:28:55.676Z,101467.19
2022-11-26T08:31:25.061Z,101477.00
2022-11-26T08:33:52.488Z,101471.22
2022-11-26T08:36:19.743Z,101474.00
2022-11-26T08:38:46.901Z,101482.03
2022-11-26T08:41:14.613Z,101483.94
2022-11-26T08:46:29.388Z,101488.31
2022-11-26T08:48:57.511Z,101484.84
2022-11-26T08:51:25.675Z,101480.28
2022-11-26T08:53:53.373Z,101493.66
2022-11-26T08:56:20.706Z,101461.03
2022-11-26T08:58:49.253Z,101494.13
2022-11-26T09:01:19.571Z,101490.78
2022-11-26T09:03:51.316Z,101485.56
2022-11-26T09:06:19.480Z,101490.94
2022-11-26T09:09:06.054Z,101491.25
2022-11-26T09:11:35.757Z,101498.28
2022-11-26T09:14:03.344Z,101485.88
2022-11-26T09:16:31.036Z,101497.06
2022-11-26T09:19:01.336Z,101499.84
2022-11-26T09:21:28.878Z,101504.41
2022-11-26T09:23:56.190Z,101509.06
2022-11-26T09:26:24.594Z,101513.44
2022-11-26T09:28:52.461Z,101507.66
2022-11-26T09:31:20.139Z,101512.19
2022-11-26T09:33:47.429Z,101511.16
2022-11-26T09:36:16.048Z,101506.84
2022-11-26T09:38:43.778Z,101514.31
2022-11-26T09:41:41.589Z,101517.81
2022-11-26T09:44:23.511Z,101515.28
2022-11-26T09:47:15.082Z,101512.75
2022-11-26T09:50:17.552Z,101517.97
2022-11-26T09:53:03.774Z,101517.22
2022-11-26T09:55:33.648Z,101516.25
2022-11-26T09:58:27.061Z,101521.66
2022-11-26T10:00:57.889Z,101531.97
2022-11-26T10:03:36.815Z,101534.38
2022-11-26T10:06:24.219Z,101537.72
2022-11-26T10:09:12.953Z,101534.22
2022-11-26T10:12:01.905Z,101538.50
2022-11-26T10:14:47.469Z,101543.75
2022-11-26T10:17:42.823Z,101550.75
2022-11-26T10:20:22.119Z,101553.38
2022-11-26T10:23:12.442Z,101554.28
2022-11-26T10:25:47.098Z,101556.16
2022-11-26T10:28:32.143Z,101549.47
2022-11-26T10:31:05.775Z,101556.31
2022-11-26T10:33:44.071Z,101556.31
2022-11-26T10:36:27.402Z,101564.28
2022-11-26T10:38:56.759Z,101554.09
2022-11-26T10:41:30.075Z,101553.16
2022-11-26T10:44:17.791Z,101559.81
2022-11-26T10:46:44.987Z,101567.00
2022-11-26T10:49:32.761Z,101565.38
2022-11-26T10:52:04.393Z,101562.91
2022-11-26T10:54:35.460Z,101569.94
2022-11-26T10:57:32.132Z,101569.75
2022-11-26T10:59:59.707Z,101568.88
2022-11-26T11:02:31.504Z,101573.97
2022-11-26T11:05:03.080Z,101573.81
2022-11-26T11:07:38.861Z,101563.78
2022-11-26T11:10:08.747Z,101565.72
2022-11-26T11:12:42.615Z,101565.06
2022-11-26T11:15:25.310Z,101566.81
2022-11-26T11:18:02.393Z,101572.94
2022-11-26T11:20:51.342Z,101576.50
2022-11-26T11:23:45.810Z,101571.56
2022-11-26T11:26:23.894Z,101575.94
2022-11-26T11:28:55.752Z,101577.63
2022-11-26T11:31:27.374Z,101579.28
2022-11-26T11:34:13.952Z,101583.53
2022-11-26T11:36:41.101Z,101585.09
2022-11-26T11:39:28.132Z,101583.38
2022-11-26T11:41:55.437Z,101584.00
2022-11-26T11:44:49.442Z,101592.50
2022-11-26T11:47:43.267Z,101586.41
2022-11-26T11:50:17.510Z,101586.25
2022-11-26T11:53:10.789Z,101573.00
2022-11-26T11:56:02.113Z,101591.34
2022-11-26T11:58:54.345Z,101588.63
2022-11-26T12:01:30.552Z,101581.00
2022-11-26T12:04:16.440Z,101580.84
2022-11-26T12:07:40.815Z,101577.63
2022-11-26T12:10:21.201Z,101576.19
2022-11-26T12:12:52.766Z,101583.19
2022-11-26T12:15:25.248Z,101585.09
2022-11-26T12:18:13.393Z,101593.88
2022-11-26T12:20:48.069Z,101597.38
2022-11-26T12:23:22.835Z,101591.47
2022-11-26T12:26:13.147Z,101583.81
2022-11-26T12:28:58.871Z,101590.84
2022-11-26T12:31:38.173Z,101591.63
2022-11-26T12:34:08.918Z,101586.59
2022-11-26T12:37:16.853Z,101592.56
2022-11-26T12:40:00.409Z,101591.13
2022-11-26T12:42:42.338Z,101593.03
2022-11-26T12:45:22.112Z,101590.81
2022-11-26T12:48:29.741Z,101586.63
2022-11-26T12:51:12.747Z,101579.66
2022-11-26T12:53:42.972Z,101590.13
2022-11-26T12:56:11.026Z,101593.50
2022-11-26T12:58:43.958Z,101600.34
2022-11-26T13:01:12.440Z,101591.88
2022-11-26T13:03:41.621Z,101598.75
2022-11-26T13:06:34.913Z,101594.50
2022-11-26T13:09:16.216Z,101597.16
2022-11-26T13:12:16.007Z,101600.63
2022-11-26T13:14:59.211Z,101602.25
2022-11-26T13:17:48.124Z,101605.72
2022-11-26T13:20:59.815Z,101604.94
2022-11-26T13:24:01.796Z,101613.47
2022-11-26T13:27:15.506Z,101609.22
2022-11-26T13:30:08.274Z,101599.03
2022-11-26T13:32:48.153Z,101603.13
2022-11-26T13:35:23.802Z,101591.81
2022-11-26T13:38:09.272Z,101596.97
2022-11-26T13:41:08.228Z,101608.94
2022-11-26T13:44:16.624Z,101600.47
2022-11-26T13:46:55.193Z,101610.81
2022-11-26T13:49:51.222Z,101615.06
2022-11-26T13:52:49.028Z,101624.53
2022-11-26T13:55:39.629Z,101624.69
2022-11-26T13:58:17.116Z,101629.72
2022-11-26T14:00:44.646Z,101631.47
2022-11-26T14:03:50.782Z,101619.44
2022-11-26T14:06:18.079Z,101631.56
2022-11-26T14:08:47.401Z,101631.56
2022-11-26T14:11:45.357Z,101636.66
2022-11-26T14:14:24.844Z,101635.69
2022-11-26T14:17:01.336Z,101631.38
2022-11-26T14:19:40.975Z,101639.81
2022-11-26T14:22:23.029Z,101642.38
2022-11-26T14:24:53.017Z,101633.84
2022-11-26T14:27:22.508Z,101643.97
2022-11-26T14:30:08.635Z,101641.41
2022-11-26T14:32:51.903Z,101647.41
2022-11-26T14:35:34.431Z,101647.22
2022-11-26T14:38:05.991Z,101642.06
2022-11-26T14:40:37.150Z,101643.81
2022-11-26T14:43:20.785Z,101647.81
2022-11-26T14:46:00.884Z,101645.75
2022-11-26T14:48:30.141Z,101651.00
2022-11-26T14:51:00.790Z,101640.66
2022-11-26T14:53:34.173Z,101647.50
2022-11-26T14:56:03.214Z,101629.97
2022-11-26T14:58:36.735Z,101646.47
2022-11-26T15:01:16.012Z,101650.72
2022-11-26T15:03:53.261Z,101665.09
2022-11-26T15:06:38.575Z,101672.69
2022-11-26T15:09:16.670Z,101672.69
2022-11-26T15:12:12.870Z,101671.81
2022-11-26T15:14:56.043Z,101675.13
2022-11-26T15:17:26.123Z,101677.78
2022-11-26T15:19:55.504Z,101676.97
2022-11-26T15:22:32.909Z,101683.75
2022-11-26T15:25:00.348Z,101674.56
2022-11-26T15:27:28.852Z,101682.22
2022-11-26T15:29:56.041Z,101679.53
2022-11-26T15:32:31.911Z,101676.19
2022-11-26T15:35:03.712Z,101677.63
2022-11-26T15:37:31.122Z,101679.38
2022-11-26T15:40:24.391Z,101677.78
2022-11-26T15:42:59.702Z,101685.59
2022-11-26T15:45:47.341Z,101688.13
2022-11-26T15:48:28.025Z,101689.00
2022-11-26T15:51:00.365Z,101688.28
2022-11-26T15:53:33.356Z,101684.91
2022-11-26T15:56:02.149Z,101684.78
2022-11-26T15:58:33.353Z,101689.16
2022-11-26T16:01:03.062Z,101678.09
2022-11-26T16:03:46.252Z,101676.00
2022-11-26T16:06:32.272Z,101667.28
2022-11-26T16:09:14.876Z,101679.53
2022-11-26T16:11:58.082Z,101674.41
2022-11-26T16:14:33.229Z,101666.94
2022-11-26T16:17:08.384Z,101666.16
2022-11-26T16:19:37.255Z,101669.31
2022-11-26T16:22:06.283Z,101671.09
2022-11-26T16:24:40.347Z,101662.63
2022-11-26T16:27:22.346Z,101664.38
2022-11-26T16:29:49.877Z,101683.19
2022-11-26T16:32:18.487Z,101680.72
2022-11-26T16:34:46.113Z,101695.22
2022-11-26T16:37:28.944Z,101707.09
2022-11-26T16:40:15.471Z,101703.56
2022-11-26T16:42:42.760Z,101711.22
2022-11-26T16:45:12.500Z,101706.22
2022-11-26T16:47:49.812Z,101707.94
2022-11-26T16:50:25.427Z,101707.25
2022-11-26T16:52:54.103Z,101702.94
2022-11-26T16:55:25.604Z,101702.28
2022-11-26T16:57:56.657Z,101710.03
2022-11-26T17:00:26.445Z,101714.22
2022-11-26T17:02:54.189Z,101711.63
2022-11-26T17:05:22.810Z,101709.13
2022-11-26T17:07:54.234Z,101717.03
2022-11-26T17:10:29.564Z,101712.06
2022-11-26T17:12:57.775Z,101718.94
2022-11-26T17:15:25.085Z,101702.59
2022-11-26T17:17:54.871Z,101711.22
2022-11-26T17:20:26.966Z,101711.06
2022-11-26T17:22:54.321Z,101705.66
2022-11-26T17:25:21.667Z,101711.69
2022-11-26T17:27:49.123Z,101708.03
2022-11-26T17:30:21.780Z,101710.75
2022-11-26T17:32:49.201Z,101683.66
2022-11-26T17:35:16.836Z,101707.78
2022-11-26T17:37:44.270Z,101711.88
2022-11-26T17:40:22.894Z,101681.59
2022-11-26T17:42:50.639Z,101717.91
2022-11-26T17:45:19.360Z,101708.50
2022-11-26T17:47:47.007Z,101707.56
2022-11-26T17:50:26.492Z,101709.94
2022-11-26T17:52:55.062Z,101716.97
2022-11-26T17:55:24.713Z,101714.56
2022-11-26T17:57:52.390Z,101726.75
2022-11-26T18:00:23.881Z,101727.69
2022-11-26T18:02:52.373Z,101720.78
2022-11-26T18:05:19.803Z,101732.16
2022-11-26T18:07:47.274Z,101723.50
2022-11-26T18:10:16.692Z,101722.84
2022-11-26T18:12:45.022Z,101717.91
2022-11-26T18:15:20.700Z,101725.38
2022-11-26T18:17:51.147Z,101721.09
2022-11-26T18:20:21.615Z,101722.84
2022-11-26T18:22:54.004Z,101716.00
2022-11-26T18:25:21.546Z,101719.50
2022-11-26T18:27:48.995Z,101718.47
2022-11-26T18:30:17.442Z,101710.75
2022-11-26T18:32:44.752Z,101716.88
2022-11-26T18:35:13.037Z,101719.31
2022-11-26T18:37:41.049Z,101729.00
2022-11-26T18:40:11.872Z,101690.75
2022-11-26T18:42:39.172Z,101722.28
2022-11-26T18:45:09.303Z,101711.78
2022-11-26T18:47:36.721Z,101714.22
2022-11-26T18:50:04.404Z,101713.50
2022-11-26T18:52:31.789Z,101723.00
2022-11-26T18:55:00.268Z,101716.88
2022-11-26T18:57:28.035Z,101719.66
2022-11-26T18:59:55.192Z,101712.78
2022-11-26T19:02:22.527Z,101716.41
2022-11-26T19:04:49.795Z,101721.56
2022-11-26T19:07:17.193Z,101723.31
2022-11-26T19:09:44.734Z,101735.41
2022-11-26T19:12:13.132Z,101737.25
2022-11-26T19:14:40.678Z,101734.78
2022-11-26T19:17:08.695Z,101728.00
2022-11-26T19:19:37.795Z,101732.25
2022-11-26T19:22:05.355Z,101736.44
2022-11-26T19:24:32.549Z,101734.47
2022-11-26T19:26:59.924Z,101736.44
2022-11-26T19:29:27.104Z,101732.97
2022-11-26T19:31:54.392Z,101745.78
2022-11-26T19:34:21.925Z,101743.22
2022-11-26T19:36:49.336Z,101749.44
2022-11-26T19:39:17.281Z,101746.72
2022-11-26T19:41:44.685Z,101750.09
2022-11-26T19:44:12.102Z,101740.38
2022-11-26T19:46:41.548Z,101747.34
2022-11-26T19:49:12.484Z,101759.47
2022-11-26T19:51:40.574Z,101755.97
2022-11-26T19:54:08.068Z,101761.22
2022-11-26T19:56:35.773Z,101760.34
2022-11-26T19:59:03.630Z,101755.34
2022-11-26T20:01:33.209Z,101753.66
2022-11-26T20:04:04.218Z,101761.38
2022-11-26T20:06:32.826Z,101767.38
2022-11-26T20:09:00.981Z,101756.28
2022-11-26T20:11:29.139Z,101765.03
2022-11-26T20:13:57.430Z,101764.16
2022-11-26T20:16:27.293Z,101761.56
2022-11-26T20:18:55.834Z,101760.59
2022-11-26T20:21:26.352Z,101765.69
2022-11-26T20:23:55.046Z,101766.47
2022-11-26T20:26:31.203Z,101751.03
2022-11-26T20:29:09.204Z,101764.72
2022-11-26T20:31:44.852Z,101762.84
2022-11-26T20:34:16.918Z,101766.47
2022-11-26T20:36:45.033Z,101750.88
2022-11-26T20:39:14.918Z,101762.44
2022-11-26T20:41:42.468Z,101765.69
2022-11-26T20:44:10.634Z,101766.47
2022-11-26T20:46:38.017Z,101767.22
2022-11-26T20:49:06.242Z,101770.72
2022-11-26T20:51:34.127Z,101765.69
2022-11-26T20:54:02.307Z,101770.72
2022-11-26T20:56:29.632Z,101769.84
2022-11-26T20:58:56.991Z,101773.34
2022-11-26T21:01:28.990Z,101774.31
2022-11-26T21:03:56.615Z,101776.88
2022-11-26T21:06:29.686Z,101782.13
2022-11-26T21:09:00.324Z,101774.22
2022-11-26T21:11:27.509Z,101778.75
2022-11-26T21:13:55.035Z,101787.38
2022-11-26T21:16:23.575Z,101778.03
2022-11-26T21:18:54.103Z,101777.16
2022-11-26T21:21:22.094Z,101777.94
2022-11-26T21:23:49.278Z,101778.91
2022-11-26T21:26:18.971Z,101751.03
2022-11-26T21:28:54.083Z,101770.47
2022-11-26T21:31:22.379Z,101776.50
2022-11-26T21:34:01.635Z,101748.25
2022-11-26T21:36:30.793Z,101784.16
2022-11-26T21:38:58.307Z,101774.88
2022-11-26T21:41:25.917Z,101774.91
2022-11-26T21:43:53.324Z,101774.13
2022-11-26T21:46:23.800Z,101782.72
2022-11-26T21:48:55.230Z,101754.69
2022-11-26T21:51:24.389Z,101784.50
2022-11-26T21:53:53.965Z,101778.28
2022-11-26T21:56:23.697Z,101784.34
2022-11-26T21:58:51.600Z,101780.97
2022-11-26T22:01:21.637Z,101784.34
2022-11-26T22:03:51.545Z,101784.16
2022-11-26T22:06:20.350Z,101797.88
2022-11-26T22:08:48.285Z,101789.44
2022-11-26T22:11:17.106Z,101793.75
2022-11-26T22:13:44.374Z,101788.63
2022-11-26T22:16:13.969Z,101786.09
2022-11-26T22:18:43.034Z,101796.28
2022-11-26T22:21:16.425Z,101787.69
2022-11-26T22:23:43.910Z,101796.28
2022-11-26T22:26:11.245Z,101796.59
2022-11-26T22:28:41.157Z,101793.25
2022-11-26T22:31:27.238Z,101781.13
2022-11-26T22:33:56.378Z,101793.25
2022-11-26T22:36:24.163Z,101801.84
2022-11-26T22:38:51.313Z,101786.38
2022-11-26T22:41:18.990Z,101803.78
2022-11-26T22:43:46.192Z,101790.06
2022-11-26T22:46:16.303Z,101790.19
2022-11-26T22:48:44.059Z,101788.47
2022-11-26T22:51:11.411Z,101785.09
2022-11-26T22:53:38.685Z,101790.19
2022-11-26T22:56:06.509Z,101775.63
2022-11-26T22:58:35.203Z,101788.47
2022-11-26T23:01:06.078Z,101779.13
2022-11-26T23:03:35.528Z,101774.75
2022-11-26T23:06:08.644Z,101776.66
2022-11-26T23:08:36.493Z,101777.69
2022-11-26T23:11:35.052Z,101785.41
2022-11-26T23:14:05.030Z,101783.81
2022-11-26T23:16:32.303Z,101772.81
2022-11-26T23:18:59.939Z,101777.13
2022-11-26T23:21:36.034Z,101767.72
2022-11-26T23:24:03.101Z,101766.91
2022-11-26T23:26:32.896Z,101766.91
2022-11-26T23:29:02.123Z,101753.19
2022-11-26T23:31:35.795Z,101760.06
2022-11-26T23:34:04.212Z,101761.81
2022-11-26T23:36:32.363Z,101760.22
2022-11-26T23:39:01.697Z,101764.50
2022-11-26T23:41:29.410Z,101766.25
2022-11-26T23:43:56.872Z,101768.72
2022-11-26T23:46:30.140Z,101763.53
2022-11-26T23:48:57.585Z,101764.50
2022-11-26T23:51:30.541Z,101773.91
2022-11-26T23:53:58.169Z,101766.31
2022-11-26T23:56:30.801Z,101765.47
2022-11-26T23:59:01.813Z,101762.91
